sensor_id;sensor_type;location;lat;lon;timestamp;P1;durP1;ratioP1;P2;durP2;ratioP2
42168;SDS011;27838;43.858;25.974;2022-12-07T00:01:16;41.03;;;17.80;;
42168;SDS011;27838;43.858;25.974;2022-12-07T00:03:43;36.10;;;18.20;;
42168;SDS011;27838;43.858;25.974;2022-12-07T00:06:12;35.70;;;16.25;;
42168;SDS011;27838;43.858;25.974;2022-12-07T00:08:40;32.90;;;15.70;;
42168;SDS011;27838;43.858;25.974;2022-12-07T00:11:07;32.13;;;16.80;;
42168;SDS011;27838;43.858;25.974;2022-12-07T00:13:36;36.60;;;18.38;;
42168;SDS011;27838;43.858;25.974;2022-12-07T00:16:08;37.70;;;16.80;;
42168;SDS011;27838;43.858;25.974;2022-12-07T00:18:40;38.55;;;17.38;;
42168;SDS011;27838;43.858;25.974;2022-12-07T00:23:46;34.40;;;17.10;;
42168;SDS011;27838;43.858;25.974;2022-12-07T00:26:20;32.92;;;16.70;;
42168;SDS011;27838;43.858;25.974;2022-12-07T00:28:50;31.80;;;16.42;;
42168;SDS011;27838;43.858;25.974;2022-12-07T00:31:19;33.55;;;17.05;;
42168;SDS011;27838;43.858;25.974;2022-12-07T00:33:47;37.15;;;17.63;;
42168;SDS011;27838;43.858;25.974;2022-12-07T00:36:18;34.22;;;16.60;;
42168;SDS011;27838;43.858;25.974;2022-12-07T00:41:19;30.60;;;15.45;;
42168;SDS011;27838;43.858;25.974;2022-12-07T00:43:47;31.77;;;15.23;;
42168;SDS011;27838;43.858;25.974;2022-12-07T00:46:14;34.70;;;16.17;;
42168;SDS011;27838;43.858;25.974;2022-12-07T00:48:42;33.90;;;16.75;;
42168;SDS011;27838;43.858;25.974;2022-12-07T00:51:12;36.30;;;16.25;;
42168;SDS011;27838;43.858;25.974;2022-12-07T00:53:40;37.08;;;17.02;;
42168;SDS011;27838;43.858;25.974;2022-12-07T00:56:08;34.58;;;17.42;;
42168;SDS011;27838;43.858;25.974;2022-12-07T00:58:37;31.88;;;16.08;;
42168;SDS011;27838;43.858;25.974;2022-12-07T01:01:04;31.63;;;15.38;;
42168;SDS011;27838;43.858;25.974;2022-12-07T01:03:33;32.03;;;15.30;;
42168;SDS011;27838;43.858;25.974;2022-12-07T01:06:00;37.80;;;16.83;;
42168;SDS011;27838;43.858;25.974;2022-12-07T01:08:27;34.67;;;16.65;;
42168;SDS011;27838;43.858;25.974;2022-12-07T01:10:58;31.73;;;15.93;;
42168;SDS011;27838;43.858;25.974;2022-12-07T01:13:26;38.85;;;15.88;;
42168;SDS011;27838;43.858;25.974;2022-12-07T01:15:55;31.90;;;15.80;;
42168;SDS011;27838;43.858;25.974;2022-12-07T01:18:24;28.35;;;15.32;;
42168;SDS011;27838;43.858;25.974;2022-12-07T01:21:01;27.88;;;15.10;;
42168;SDS011;27838;43.858;25.974;2022-12-07T01:23:30;29.33;;;16.08;;
42168;SDS011;27838;43.858;25.974;2022-12-07T01:25:58;27.45;;;15.45;;
42168;SDS011;27838;43.858;25.974;2022-12-07T01:28:26;27.10;;;14.52;;
42168;SDS011;27838;43.858;25.974;2022-12-07T01:30:57;28.60;;;15.63;;
42168;SDS011;27838;43.858;25.974;2022-12-07T01:33:23;27.90;;;15.27;;
42168;SDS011;27838;43.858;25.974;2022-12-07T01:35:50;31.15;;;16.58;;
42168;SDS011;27838;43.858;25.974;2022-12-07T01:38:16;32.15;;;16.42;;
42168;SDS011;27838;43.858;25.974;2022-12-07T01:40:43;29.73;;;16.20;;
42168;SDS011;27838;43.858;25.974;2022-12-07T01:43:16;31.73;;;15.90;;
42168;SDS011;27838;43.858;25.974;2022-12-07T01:45:44;28.75;;;16.17;;
42168;SDS011;27838;43.858;25.974;2022-12-07T01:48:12;28.42;;;15.40;;
42168;SDS011;27838;43.858;25.974;2022-12-07T01:50:42;28.23;;;16.23;;
42168;SDS011;27838;43.858;25.974;2022-12-07T01:53:10;30.08;;;15.45;;
42168;SDS011;27838;43.858;25.974;2022-12-07T01:55:40;28.95;;;15.88;;
42168;SDS011;27838;43.858;25.974;2022-12-07T01:58:10;28.55;;;15.15;;
42168;SDS011;27838;43.858;25.974;2022-12-07T02:00:38;28.08;;;15.23;;
42168;SDS011;27838;43.858;25.974;2022-12-07T02:03:49;28.95;;;15.60;;
42168;SDS011;27838;43.858;25.974;2022-12-07T02:06:05;26.23;;;14.82;;
42168;SDS011;27838;43.858;25.974;2022-12-07T02:08:33;25.60;;;14.00;;
42168;SDS011;27838;43.858;25.974;2022-12-07T02:11:01;26.92;;;14.38;;
42168;SDS011;27838;43.858;25.974;2022-12-07T02:13:30;27.80;;;14.43;;
42168;SDS011;27838;43.858;25.974;2022-12-07T02:30:01;28.92;;;15.15;;
42168;SDS011;27838;43.858;25.974;2022-12-07T02:35:32;30.58;;;15.48;;
42168;SDS011;27838;43.858;25.974;2022-12-07T02:38:08;30.58;;;15.75;;
42168;SDS011;27838;43.858;25.974;2022-12-07T02:41:01;29.75;;;15.27;;
42168;SDS011;27838;43.858;25.974;2022-12-07T02:43:38;33.33;;;16.00;;
42168;SDS011;27838;43.858;25.974;2022-12-07T02:46:17;30.90;;;16.45;;
42168;SDS011;27838;43.858;25.974;2022-12-07T02:48:48;33.15;;;16.05;;
42168;SDS011;27838;43.858;25.974;2022-12-07T02:51:17;40.53;;;16.77;;
42168;SDS011;27838;43.858;25.974;2022-12-07T02:53:44;38.47;;;16.63;;
42168;SDS011;27838;43.858;25.974;2022-12-07T02:56:15;40.50;;;18.58;;
42168;SDS011;27838;43.858;25.974;2022-12-07T03:12:46;47.95;;;19.33;;
42168;SDS011;27838;43.858;25.974;2022-12-07T03:17:52;41.10;;;17.73;;
42168;SDS011;27838;43.858;25.974;2022-12-07T03:20:21;40.67;;;18.50;;
42168;SDS011;27838;43.858;25.974;2022-12-07T03:22:52;35.60;;;16.83;;
42168;SDS011;27838;43.858;25.974;2022-12-07T03:25:20;40.88;;;17.85;;
42168;SDS011;27838;43.858;25.974;2022-12-07T03:30:21;41.58;;;18.15;;
42168;SDS011;27838;43.858;25.974;2022-12-07T03:32:55;44.03;;;18.67;;
42168;SDS011;27838;43.858;25.974;2022-12-07T03:38:57;45.58;;;18.65;;
42168;SDS011;27838;43.858;25.974;2022-12-07T03:41:27;44.28;;;18.25;;
42168;SDS011;27838;43.858;25.974;2022-12-07T03:43:57;48.50;;;18.73;;
42168;SDS011;27838;43.858;25.974;2022-12-07T03:46:28;43.58;;;18.60;;
42168;SDS011;27838;43.858;25.974;2022-12-07T03:49:06;43.20;;;19.33;;
42168;SDS011;27838;43.858;25.974;2022-12-07T03:51:59;43.33;;;18.27;;
42168;SDS011;27838;43.858;25.974;2022-12-07T03:54:51;43.42;;;18.42;;
42168;SDS011;27838;43.858;25.974;2022-12-07T03:57:31;39.97;;;17.75;;
42168;SDS011;27838;43.858;25.974;2022-12-07T04:00:00;41.35;;;18.23;;
42168;SDS011;27838;43.858;25.974;2022-12-07T04:02:29;45.53;;;18.17;;
42168;SDS011;27838;43.858;25.974;2022-12-07T04:04:56;52.25;;;20.55;;
42168;SDS011;27838;43.858;25.974;2022-12-07T04:07:22;48.03;;;19.23;;
42168;SDS011;27838;43.858;25.974;2022-12-07T04:09:49;46.38;;;19.63;;
42168;SDS011;27838;43.858;25.974;2022-12-07T04:12:16;45.33;;;20.05;;
42168;SDS011;27838;43.858;25.974;2022-12-07T04:14:42;45.30;;;20.02;;
42168;SDS011;27838;43.858;25.974;2022-12-07T04:17:09;48.70;;;21.45;;
42168;SDS011;27838;43.858;25.974;2022-12-07T04:19:35;47.40;;;20.27;;
42168;SDS011;27838;43.858;25.974;2022-12-07T04:22:02;43.58;;;20.00;;
42168;SDS011;27838;43.858;25.974;2022-12-07T04:24:30;41.72;;;20.65;;
42168;SDS011;27838;43.858;25.974;2022-12-07T04:26:56;42.38;;;19.70;;
42168;SDS011;27838;43.858;25.974;2022-12-07T04:29:23;38.28;;;19.02;;
42168;SDS011;27838;43.858;25.974;2022-12-07T04:31:50;41.28;;;19.98;;
42168;SDS011;27838;43.858;25.974;2022-12-07T04:34:17;38.75;;;18.58;;
42168;SDS011;27838;43.858;25.974;2022-12-07T04:36:45;40.92;;;19.30;;
42168;SDS011;27838;43.858;25.974;2022-12-07T04:41:50;36.42;;;18.98;;
42168;SDS011;27838;43.858;25.974;2022-12-07T04:44:18;43.88;;;20.35;;
42168;SDS011;27838;43.858;25.974;2022-12-07T04:46:44;41.65;;;20.60;;
42168;SDS011;27838;43.858;25.974;2022-12-07T04:49:12;44.97;;;21.92;;
42168;SDS011;27838;43.858;25.974;2022-12-07T04:51:38;39.13;;;19.58;;
42168;SDS011;27838;43.858;25.974;2022-12-07T04:54:05;38.22;;;20.13;;
42168;SDS011;27838;43.858;25.974;2022-12-07T04:56:32;46.45;;;21.45;;
42168;SDS011;27838;43.858;25.974;2022-12-07T04:59:00;42.80;;;21.08;;
42168;SDS011;27838;43.858;25.974;2022-12-07T05:01:28;42.33;;;20.17;;
42168;SDS011;27838;43.858;25.974;2022-12-07T05:03:54;42.55;;;20.45;;
42168;SDS011;27838;43.858;25.974;2022-12-07T05:06:21;40.60;;;20.45;;
42168;SDS011;27838;43.858;25.974;2022-12-07T05:08:48;42.67;;;21.08;;
42168;SDS011;27838;43.858;25.974;2022-12-07T05:11:15;40.60;;;20.92;;
42168;SDS011;27838;43.858;25.974;2022-12-07T05:13:55;40.25;;;21.80;;
42168;SDS011;27838;43.858;25.974;2022-12-07T05:16:23;42.67;;;22.77;;
42168;SDS011;27838;43.858;25.974;2022-12-07T05:18:49;50.00;;;23.25;;
42168;SDS011;27838;43.858;25.974;2022-12-07T05:21:16;45.30;;;22.48;;
42168;SDS011;27838;43.858;25.974;2022-12-07T05:23:42;41.05;;;20.98;;
42168;SDS011;27838;43.858;25.974;2022-12-07T05:26:09;44.85;;;21.58;;
42168;SDS011;27838;43.858;25.974;2022-12-07T05:28:36;44.55;;;21.90;;
42168;SDS011;27838;43.858;25.974;2022-12-07T05:31:02;48.08;;;23.45;;
42168;SDS011;27838;43.858;25.974;2022-12-07T05:33:29;47.35;;;21.90;;
42168;SDS011;27838;43.858;25.974;2022-12-07T05:35:55;39.38;;;20.50;;
42168;SDS011;27838;43.858;25.974;2022-12-07T05:38:22;40.03;;;21.98;;
42168;SDS011;27838;43.858;25.974;2022-12-07T05:40:49;40.17;;;21.02;;
42168;SDS011;27838;43.858;25.974;2022-12-07T05:43:16;43.60;;;22.50;;
42168;SDS011;27838;43.858;25.974;2022-12-07T05:45:42;52.75;;;26.80;;
42168;SDS011;27838;43.858;25.974;2022-12-07T05:48:09;44.45;;;24.02;;
42168;SDS011;27838;43.858;25.974;2022-12-07T05:50:35;46.33;;;22.63;;
42168;SDS011;27838;43.858;25.974;2022-12-07T05:53:02;48.17;;;23.58;;
42168;SDS011;27838;43.858;25.974;2022-12-07T05:55:28;42.30;;;22.05;;
42168;SDS011;27838;43.858;25.974;2022-12-07T05:57:55;41.22;;;21.50;;
42168;SDS011;27838;43.858;25.974;2022-12-07T06:00:39;41.10;;;20.45;;
42168;SDS011;27838;43.858;25.974;2022-12-07T06:03:06;46.70;;;23.15;;
42168;SDS011;27838;43.858;25.974;2022-12-07T06:05:33;41.22;;;21.58;;
42168;SDS011;27838;43.858;25.974;2022-12-07T06:08:00;37.45;;;20.45;;
42168;SDS011;27838;43.858;25.974;2022-12-07T06:10:26;44.92;;;22.67;;
42168;SDS011;27838;43.858;25.974;2022-12-07T06:12:53;35.35;;;19.30;;
42168;SDS011;27838;43.858;25.974;2022-12-07T06:15:18;39.78;;;19.63;;
42168;SDS011;27838;43.858;25.974;2022-12-07T06:17:45;41.90;;;21.20;;
42168;SDS011;27838;43.858;25.974;2022-12-07T06:20:11;45.88;;;22.17;;
42168;SDS011;27838;43.858;25.974;2022-12-07T06:22:38;42.45;;;20.63;;
42168;SDS011;27838;43.858;25.974;2022-12-07T06:25:05;41.80;;;21.13;;
42168;SDS011;27838;43.858;25.974;2022-12-07T06:27:32;40.25;;;21.48;;
42168;SDS011;27838;43.858;25.974;2022-12-07T06:30:00;36.33;;;19.63;;
42168;SDS011;27838;43.858;25.974;2022-12-07T06:32:31;36.77;;;19.43;;
42168;SDS011;27838;43.858;25.974;2022-12-07T06:34:59;35.88;;;18.98;;
42168;SDS011;27838;43.858;25.974;2022-12-07T06:37:26;32.95;;;18.38;;
42168;SDS011;27838;43.858;25.974;2022-12-07T06:39:52;41.95;;;19.67;;
42168;SDS011;27838;43.858;25.974;2022-12-07T06:42:19;34.47;;;19.23;;
42168;SDS011;27838;43.858;25.974;2022-12-07T06:44:46;37.70;;;19.77;;
42168;SDS011;27838;43.858;25.974;2022-12-07T06:47:12;37.08;;;19.13;;
42168;SDS011;27838;43.858;25.974;2022-12-07T06:49:39;33.50;;;17.95;;
42168;SDS011;27838;43.858;25.974;2022-12-07T06:52:05;32.30;;;17.75;;
42168;SDS011;27838;43.858;25.974;2022-12-07T06:54:32;30.20;;;16.65;;
42168;SDS011;27838;43.858;25.974;2022-12-07T06:56:58;31.85;;;17.80;;
42168;SDS011;27838;43.858;25.974;2022-12-07T06:59:25;35.15;;;17.88;;
42168;SDS011;27838;43.858;25.974;2022-12-07T07:01:51;33.60;;;16.67;;
42168;SDS011;27838;43.858;25.974;2022-12-07T07:04:18;32.03;;;16.83;;
42168;SDS011;27838;43.858;25.974;2022-12-07T07:06:44;28.15;;;15.48;;
42168;SDS011;27838;43.858;25.974;2022-12-07T07:09:12;31.08;;;15.82;;
42168;SDS011;27838;43.858;25.974;2022-12-07T07:11:38;27.10;;;15.02;;
42168;SDS011;27838;43.858;25.974;2022-12-07T07:14:05;29.27;;;15.68;;
42168;SDS011;27838;43.858;25.974;2022-12-07T07:16:31;27.70;;;14.90;;
42168;SDS011;27838;43.858;25.974;2022-12-07T07:18:58;28.23;;;15.35;;
42168;SDS011;27838;43.858;25.974;2022-12-07T07:21:24;24.73;;;15.00;;
42168;SDS011;27838;43.858;25.974;2022-12-07T07:23:51;25.67;;;14.48;;
42168;SDS011;27838;43.858;25.974;2022-12-07T07:26:18;24.23;;;13.98;;
42168;SDS011;27838;43.858;25.974;2022-12-07T07:28:44;30.67;;;13.73;;
42168;SDS011;27838;43.858;25.974;2022-12-07T07:31:11;29.77;;;16.27;;
42168;SDS011;27838;43.858;25.974;2022-12-07T07:33:37;29.33;;;16.15;;
42168;SDS011;27838;43.858;25.974;2022-12-07T07:36:04;29.77;;;15.85;;
42168;SDS011;27838;43.858;25.974;2022-12-07T07:38:31;28.05;;;16.48;;
42168;SDS011;27838;43.858;25.974;2022-12-07T07:40:57;25.45;;;15.13;;
42168;SDS011;27838;43.858;25.974;2022-12-07T07:43:24;24.67;;;13.98;;
42168;SDS011;27838;43.858;25.974;2022-12-07T07:45:50;29.38;;;15.65;;
42168;SDS011;27838;43.858;25.974;2022-12-07T07:48:17;32.40;;;16.77;;
42168;SDS011;27838;43.858;25.974;2022-12-07T07:50:43;24.80;;;15.43;;
42168;SDS011;27838;43.858;25.974;2022-12-07T07:53:10;26.30;;;14.85;;
42168;SDS011;27838;43.858;25.974;2022-12-07T07:55:36;30.27;;;15.73;;
42168;SDS011;27838;43.858;25.974;2022-12-07T07:58:03;33.10;;;16.92;;
42168;SDS011;27838;43.858;25.974;2022-12-07T08:00:29;25.70;;;14.90;;
42168;SDS011;27838;43.858;25.974;2022-12-07T08:02:56;27.85;;;15.38;;
42168;SDS011;27838;43.858;25.974;2022-12-07T08:05:22;31.23;;;15.70;;
42168;SDS011;27838;43.858;25.974;2022-12-07T08:07:49;25.55;;;14.63;;
42168;SDS011;27838;43.858;25.974;2022-12-07T08:10:15;21.95;;;13.75;;
42168;SDS011;27838;43.858;25.974;2022-12-07T08:12:42;22.40;;;13.43;;
42168;SDS011;27838;43.858;25.974;2022-12-07T08:15:27;25.73;;;14.75;;
42168;SDS011;27838;43.858;25.974;2022-12-07T08:17:56;23.83;;;15.18;;
42168;SDS011;27838;43.858;25.974;2022-12-07T08:20:22;26.85;;;14.40;;
42168;SDS011;27838;43.858;25.974;2022-12-07T08:22:49;26.35;;;14.70;;
42168;SDS011;27838;43.858;25.974;2022-12-07T08:25:16;25.08;;;14.52;;
42168;SDS011;27838;43.858;25.974;2022-12-07T08:27:43;27.90;;;15.68;;
42168;SDS011;27838;43.858;25.974;2022-12-07T08:30:09;28.40;;;16.33;;
42168;SDS011;27838;43.858;25.974;2022-12-07T08:32:36;23.33;;;14.85;;
42168;SDS011;27838;43.858;25.974;2022-12-07T08:35:03;26.23;;;14.52;;
42168;SDS011;27838;43.858;25.974;2022-12-07T08:37:29;25.55;;;14.85;;
42168;SDS011;27838;43.858;25.974;2022-12-07T08:39:57;27.80;;;15.77;;
42168;SDS011;27838;43.858;25.974;2022-12-07T08:42:24;27.17;;;15.88;;
42168;SDS011;27838;43.858;25.974;2022-12-07T08:44:54;31.08;;;17.25;;
42168;SDS011;27838;43.858;25.974;2022-12-07T08:47:22;25.50;;;14.63;;
42168;SDS011;27838;43.858;25.974;2022-12-07T08:49:50;29.35;;;16.50;;
42168;SDS011;27838;43.858;25.974;2022-12-07T08:52:18;27.38;;;15.77;;
42168;SDS011;27838;43.858;25.974;2022-12-07T08:54:46;28.33;;;16.10;;
42168;SDS011;27838;43.858;25.974;2022-12-07T08:57:13;27.13;;;16.48;;
42168;SDS011;27838;43.858;25.974;2022-12-07T08:59:39;26.98;;;14.60;;
42168;SDS011;27838;43.858;25.974;2022-12-07T09:02:06;26.00;;;15.98;;
42168;SDS011;27838;43.858;25.974;2022-12-07T09:04:32;26.60;;;16.23;;
42168;SDS011;27838;43.858;25.974;2022-12-07T09:06:59;26.60;;;16.55;;
42168;SDS011;27838;43.858;25.974;2022-12-07T09:09:25;29.45;;;18.00;;
42168;SDS011;27838;43.858;25.974;2022-12-07T09:11:52;29.75;;;17.52;;
42168;SDS011;27838;43.858;25.974;2022-12-07T09:14:19;32.47;;;18.05;;
42168;SDS011;27838;43.858;25.974;2022-12-07T09:16:45;30.17;;;16.85;;
42168;SDS011;27838;43.858;25.974;2022-12-07T09:19:12;35.00;;;18.52;;
42168;SDS011;27838;43.858;25.974;2022-12-07T09:21:38;29.30;;;17.48;;
42168;SDS011;27838;43.858;25.974;2022-12-07T09:24:05;23.40;;;14.85;;
42168;SDS011;27838;43.858;25.974;2022-12-07T09:26:32;24.17;;;14.20;;
42168;SDS011;27838;43.858;25.974;2022-12-07T09:29:04;26.52;;;15.55;;
42168;SDS011;27838;43.858;25.974;2022-12-07T09:31:31;22.63;;;14.20;;
42168;SDS011;27838;43.858;25.974;2022-12-07T09:33:58;29.77;;;15.45;;
42168;SDS011;27838;43.858;25.974;2022-12-07T09:36:26;28.40;;;15.80;;
42168;SDS011;27838;43.858;25.974;2022-12-07T09:38:53;20.35;;;13.77;;
42168;SDS011;27838;43.858;25.974;2022-12-07T09:41:20;24.65;;;14.70;;
42168;SDS011;27838;43.858;25.974;2022-12-07T09:43:48;22.30;;;14.07;;
42168;SDS011;27838;43.858;25.974;2022-12-07T09:46:16;25.23;;;14.88;;
42168;SDS011;27838;43.858;25.974;2022-12-07T09:48:45;26.50;;;15.27;;
42168;SDS011;27838;43.858;25.974;2022-12-07T09:53:43;27.35;;;16.17;;
42168;SDS011;27838;43.858;25.974;2022-12-07T09:56:11;27.63;;;16.92;;
42168;SDS011;27838;43.858;25.974;2022-12-07T09:58:43;23.88;;;16.10;;
42168;SDS011;27838;43.858;25.974;2022-12-07T10:01:12;19.98;;;13.55;;
42168;SDS011;27838;43.858;25.974;2022-12-07T10:06:17;23.60;;;14.00;;
42168;SDS011;27838;43.858;25.974;2022-12-07T10:08:45;22.35;;;14.15;;
42168;SDS011;27838;43.858;25.974;2022-12-07T10:11:12;23.50;;;14.52;;
42168;SDS011;27838;43.858;25.974;2022-12-07T10:13:41;23.52;;;13.52;;
42168;SDS011;27838;43.858;25.974;2022-12-07T10:16:57;23.83;;;14.80;;
42168;SDS011;27838;43.858;25.974;2022-12-07T10:24:41;24.00;;;13.35;;
42168;SDS011;27838;43.858;25.974;2022-12-07T10:27:19;21.30;;;12.65;;
42168;SDS011;27838;43.858;25.974;2022-12-07T10:29:51;25.20;;;14.57;;
42168;SDS011;27838;43.858;25.974;2022-12-07T10:34:45;25.77;;;15.75;;
42168;SDS011;27838;43.858;25.974;2022-12-07T10:42:21;24.63;;;14.13;;
42168;SDS011;27838;43.858;25.974;2022-12-07T10:53:49;26.58;;;13.32;;
42168;SDS011;27838;43.858;25.974;2022-12-07T11:07:06;24.90;;;14.63;;
42168;SDS011;27838;43.858;25.974;2022-12-07T11:17:42;27.77;;;15.27;;
42168;SDS011;27838;43.858;25.974;2022-12-07T11:28:20;35.40;;;15.93;;
42168;SDS011;27838;43.858;25.974;2022-12-07T11:31:14;28.95;;;17.65;;
42168;SDS011;27838;43.858;25.974;2022-12-07T11:36:33;25.17;;;16.27;;
42168;SDS011;27838;43.858;25.974;2022-12-07T11:41:46;35.90;;;17.75;;
42168;SDS011;27838;43.858;25.974;2022-12-07T11:47:07;35.45;;;20.27;;
42168;SDS011;27838;43.858;25.974;2022-12-07T11:49:47;33.83;;;18.10;;
42168;SDS011;27838;43.858;25.974;2022-12-07T11:55:47;53.40;;;20.88;;
42168;SDS011;27838;43.858;25.974;2022-12-07T12:00:50;36.58;;;19.00;;
42168;SDS011;27838;43.858;25.974;2022-12-07T12:03:28;53.88;;;20.10;;
42168;SDS011;27838;43.858;25.974;2022-12-07T12:05:59;25.42;;;16.30;;
42168;SDS011;27838;43.858;25.974;2022-12-07T12:08:30;30.70;;;17.67;;
42168;SDS011;27838;43.858;25.974;2022-12-07T12:19:38;26.70;;;17.27;;
42168;SDS011;27838;43.858;25.974;2022-12-07T12:22:15;29.23;;;16.88;;
42168;SDS011;27838;43.858;25.974;2022-12-07T12:24:47;29.83;;;17.48;;
42168;SDS011;27838;43.858;25.974;2022-12-07T12:27:21;31.20;;;18.10;;
42168;SDS011;27838;43.858;25.974;2022-12-07T12:29:55;26.67;;;19.08;;
42168;SDS011;27838;43.858;25.974;2022-12-07T12:32:41;27.75;;;19.10;;
42168;SDS011;27838;43.858;25.974;2022-12-07T12:35:22;30.33;;;19.48;;
42168;SDS011;27838;43.858;25.974;2022-12-07T12:37:52;28.73;;;19.52;;
42168;SDS011;27838;43.858;25.974;2022-12-07T12:42:55;28.25;;;17.95;;
42168;SDS011;27838;43.858;25.974;2022-12-07T12:45:24;32.97;;;17.70;;
42168;SDS011;27838;43.858;25.974;2022-12-07T12:47:54;31.02;;;18.38;;
42168;SDS011;27838;43.858;25.974;2022-12-07T12:50:22;30.10;;;18.85;;
42168;SDS011;27838;43.858;25.974;2022-12-07T12:58:47;30.02;;;19.05;;
42168;SDS011;27838;43.858;25.974;2022-12-07T13:01:59;29.52;;;18.55;;
42168;SDS011;27838;43.858;25.974;2022-12-07T13:04:17;32.88;;;19.73;;
42168;SDS011;27838;43.858;25.974;2022-12-07T13:06:56;33.25;;;18.75;;
42168;SDS011;27838;43.858;25.974;2022-12-07T13:09:27;36.00;;;22.67;;
42168;SDS011;27838;43.858;25.974;2022-12-07T13:11:58;31.42;;;19.77;;
42168;SDS011;27838;43.858;25.974;2022-12-07T13:17:06;35.20;;;19.67;;
42168;SDS011;27838;43.858;25.974;2022-12-07T13:22:49;32.90;;;21.08;;
42168;SDS011;27838;43.858;25.974;2022-12-07T13:25:03;40.88;;;22.95;;
42168;SDS011;27838;43.858;25.974;2022-12-07T13:27:54;41.83;;;24.20;;
42168;SDS011;27838;43.858;25.974;2022-12-07T13:30:27;41.10;;;25.92;;
42168;SDS011;27838;43.858;25.974;2022-12-07T13:32:58;47.53;;;24.30;;
42168;SDS011;27838;43.858;25.974;2022-12-07T13:37:56;50.42;;;25.27;;
42168;SDS011;27838;43.858;25.974;2022-12-07T13:40:23;43.08;;;25.02;;
42168;SDS011;27838;43.858;25.974;2022-12-07T13:43:00;52.22;;;25.50;;
42168;SDS011;27838;43.858;25.974;2022-12-07T13:45:30;34.50;;;22.58;;
42168;SDS011;27838;43.858;25.974;2022-12-07T13:48:29;48.95;;;24.60;;
42168;SDS011;27838;43.858;25.974;2022-12-07T13:50:59;46.10;;;24.13;;
42168;SDS011;27838;43.858;25.974;2022-12-07T13:53:27;52.08;;;24.52;;
42168;SDS011;27838;43.858;25.974;2022-12-07T13:55:56;47.53;;;24.38;;
42168;SDS011;27838;43.858;25.974;2022-12-07T13:58:24;51.20;;;23.73;;
42168;SDS011;27838;43.858;25.974;2022-12-07T14:00:52;45.40;;;24.30;;
42168;SDS011;27838;43.858;25.974;2022-12-07T14:03:25;47.80;;;25.35;;
42168;SDS011;27838;43.858;25.974;2022-12-07T14:06:37;64.13;;;26.30;;
42168;SDS011;27838;43.858;25.974;2022-12-07T14:08:50;44.85;;;24.08;;
42168;SDS011;27838;43.858;25.974;2022-12-07T14:11:18;51.47;;;24.20;;
42168;SDS011;27838;43.858;25.974;2022-12-07T14:16:29;52.88;;;23.98;;
42168;SDS011;27838;43.858;25.974;2022-12-07T14:18:59;54.42;;;26.88;;
42168;SDS011;27838;43.858;25.974;2022-12-07T14:21:28;55.95;;;27.08;;
42168;SDS011;27838;43.858;25.974;2022-12-07T14:26:35;53.13;;;27.45;;
42168;SDS011;27838;43.858;25.974;2022-12-07T14:29:19;56.53;;;28.08;;
42168;SDS011;27838;43.858;25.974;2022-12-07T14:31:48;58.60;;;29.23;;
42168;SDS011;27838;43.858;25.974;2022-12-07T14:34:14;52.28;;;27.48;;
42168;SDS011;27838;43.858;25.974;2022-12-07T14:36:41;49.15;;;28.17;;
42168;SDS011;27838;43.858;25.974;2022-12-07T14:39:07;61.30;;;29.42;;
42168;SDS011;27838;43.858;25.974;2022-12-07T14:41:34;55.60;;;28.83;;
42168;SDS011;27838;43.858;25.974;2022-12-07T14:44:19;66.80;;;29.30;;
42168;SDS011;27838;43.858;25.974;2022-12-07T14:46:47;53.65;;;29.63;;
42168;SDS011;27838;43.858;25.974;2022-12-07T14:49:15;59.60;;;29.63;;
42168;SDS011;27838;43.858;25.974;2022-12-07T14:51:44;53.25;;;29.33;;
42168;SDS011;27838;43.858;25.974;2022-12-07T14:54:16;52.63;;;28.83;;
42168;SDS011;27838;43.858;25.974;2022-12-07T14:56:45;59.97;;;30.02;;
42168;SDS011;27838;43.858;25.974;2022-12-07T14:59:14;55.75;;;30.45;;
42168;SDS011;27838;43.858;25.974;2022-12-07T15:01:42;58.15;;;29.83;;
42168;SDS011;27838;43.858;25.974;2022-12-07T15:04:08;64.20;;;32.95;;
42168;SDS011;27838;43.858;25.974;2022-12-07T15:06:35;71.60;;;31.25;;
42168;SDS011;27838;43.858;25.974;2022-12-07T15:09:02;49.17;;;29.63;;
42168;SDS011;27838;43.858;25.974;2022-12-07T15:11:29;63.85;;;29.95;;
42168;SDS011;27838;43.858;25.974;2022-12-07T15:13:55;51.70;;;27.77;;
42168;SDS011;27838;43.858;25.974;2022-12-07T15:16:38;64.43;;;30.73;;
42168;SDS011;27838;43.858;25.974;2022-12-07T15:19:09;48.83;;;29.83;;
42168;SDS011;27838;43.858;25.974;2022-12-07T15:21:39;58.58;;;28.83;;
42168;SDS011;27838;43.858;25.974;2022-12-07T15:24:07;49.53;;;29.10;;
42168;SDS011;27838;43.858;25.974;2022-12-07T15:26:38;56.03;;;29.80;;
42168;SDS011;27838;43.858;25.974;2022-12-07T15:29:06;48.72;;;27.98;;
42168;SDS011;27838;43.858;25.974;2022-12-07T15:31:34;56.38;;;30.38;;
42168;SDS011;27838;43.858;25.974;2022-12-07T15:34:01;55.97;;;31.05;;
42168;SDS011;27838;43.858;25.974;2022-12-07T15:36:29;49.92;;;27.88;;
42168;SDS011;27838;43.858;25.974;2022-12-07T15:38:57;56.85;;;29.80;;
42168;SDS011;27838;43.858;25.974;2022-12-07T15:41:23;59.35;;;31.23;;
42168;SDS011;27838;43.858;25.974;2022-12-07T15:43:50;51.85;;;30.23;;
42168;SDS011;27838;43.858;25.974;2022-12-07T15:46:38;54.15;;;30.27;;
42168;SDS011;27838;43.858;25.974;2022-12-07T15:49:09;48.08;;;28.73;;
42168;SDS011;27838;43.858;25.974;2022-12-07T15:54:05;57.15;;;27.95;;
42168;SDS011;27838;43.858;25.974;2022-12-07T15:56:31;56.05;;;27.85;;
42168;SDS011;27838;43.858;25.974;2022-12-07T15:58:58;50.95;;;28.10;;
42168;SDS011;27838;43.858;25.974;2022-12-07T16:01:24;53.88;;;29.08;;
42168;SDS011;27838;43.858;25.974;2022-12-07T16:03:51;53.05;;;28.85;;
42168;SDS011;27838;43.858;25.974;2022-12-07T16:06:18;58.50;;;29.35;;
42168;SDS011;27838;43.858;25.974;2022-12-07T16:08:45;55.42;;;29.13;;
42168;SDS011;27838;43.858;25.974;2022-12-07T16:11:12;58.40;;;29.65;;
42168;SDS011;27838;43.858;25.974;2022-12-07T16:13:39;53.90;;;27.02;;
42168;SDS011;27838;43.858;25.974;2022-12-07T16:16:07;55.75;;;27.65;;
42168;SDS011;27838;43.858;25.974;2022-12-07T16:18:38;53.10;;;27.38;;
42168;SDS011;27838;43.858;25.974;2022-12-07T16:21:05;61.30;;;28.23;;
42168;SDS011;27838;43.858;25.974;2022-12-07T16:23:32;58.58;;;28.17;;
42168;SDS011;27838;43.858;25.974;2022-12-07T16:26:05;48.00;;;26.88;;
42168;SDS011;27838;43.858;25.974;2022-12-07T16:28:38;51.15;;;26.92;;
42168;SDS011;27838;43.858;25.974;2022-12-07T16:31:08;53.13;;;26.98;;
42168;SDS011;27838;43.858;25.974;2022-12-07T16:36:04;49.20;;;25.00;;
42168;SDS011;27838;43.858;25.974;2022-12-07T16:38:32;51.88;;;27.45;;
42168;SDS011;27838;43.858;25.974;2022-12-07T16:40:59;51.45;;;27.27;;
42168;SDS011;27838;43.858;25.974;2022-12-07T16:43:26;53.38;;;26.23;;
42168;SDS011;27838;43.858;25.974;2022-12-07T16:45:53;59.80;;;29.63;;
42168;SDS011;27838;43.858;25.974;2022-12-07T16:48:19;57.08;;;27.45;;
42168;SDS011;27838;43.858;25.974;2022-12-07T16:50:46;67.05;;;29.98;;
42168;SDS011;27838;43.858;25.974;2022-12-07T16:53:13;52.15;;;27.98;;